sensor_id;sensor_type;location;lat;lon;timestamp;pressure;altitude;pressure_sealevel;temperature;humidity
56632;BME280;42503;39.928;-75.152;2023-07-16T00:00:57;101056.50;;;28.38;42.59
56632;BME280;42503;39.928;-75.152;2023-07-16T00:11:04;101036.75;;;28.29;42.31
56632;BME280;42503;39.928;-75.152;2023-07-16T00:21:05;101056.00;;;28.45;42.36
56632;BME280;42503;39.928;-75.152;2023-07-16T00:31:06;101030.84;;;28.40;42.35
56632;BME280;42503;39.928;-75.152;2023-07-16T00:41:08;101038.81;;;28.46;42.45
56632;BME280;42503;39.928;-75.152;2023-07-16T00:51:12;101021.53;;;28.30;42.46
56632;BME280;42503;39.928;-75.152;2023-07-16T01:01:15;101037.13;;;28.45;42.48
56632;BME280;42503;39.928;-75.152;2023-07-16T01:11:16;101031.19;;;28.47;42.63
56632;BME280;42503;39.928;-75.152;2023-07-16T01:21:19;101037.28;;;28.49;42.63
56632;BME280;42503;39.928;-75.152;2023-07-16T01:31:21;101046.09;;;28.47;42.49
56632;BME280;42503;39.928;-75.152;2023-07-16T01:41:23;101057.00;;;28.49;42.69
56632;BME280;42503;39.928;-75.152;2023-07-16T01:51:26;101055.34;;;28.48;42.36
56632;BME280;42503;39.928;-75.152;2023-07-16T02:01:27;101060.97;;;28.48;42.73
56632;BME280;42503;39.928;-75.152;2023-07-16T02:11:31;101048.53;;;28.40;42.98
56632;BME280;42503;39.928;-75.152;2023-07-16T02:21:33;101051.53;;;28.44;42.68
56632;BME280;42503;39.928;-75.152;2023-07-16T02:31:35;101066.59;;;28.48;42.45
56632;BME280;42503;39.928;-75.152;2023-07-16T02:41:37;101022.56;;;28.34;42.30
56632;BME280;42503;39.928;-75.152;2023-07-16T02:51:38;101039.63;;;28.47;42.11
56632;BME280;42503;39.928;-75.152;2023-07-16T03:01:40;101041.75;;;28.50;42.42
56632;BME280;42503;39.928;-75.152;2023-07-16T03:11:41;101014.94;;;28.52;42.54
56632;BME280;42503;39.928;-75.152;2023-07-16T03:21:42;101007.66;;;28.51;42.34
56632;BME280;42503;39.928;-75.152;2023-07-16T03:31:44;101000.38;;;28.42;42.54
56632;BME280;42503;39.928;-75.152;2023-07-16T03:41:45;100995.75;;;28.46;42.39
56632;BME280;42503;39.928;-75.152;2023-07-16T03:51:47;101007.66;;;28.51;42.59
56632;BME280;42503;39.928;-75.152;2023-07-16T04:01:48;100999.06;;;28.48;42.71
56632;BME280;42503;39.928;-75.152;2023-07-16T04:11:49;100979.00;;;28.41;42.43
56632;BME280;42503;39.928;-75.152;2023-07-16T04:21:51;100987.63;;;28.53;42.54
56632;BME280;42503;39.928;-75.152;2023-07-16T04:31:52;100991.09;;;28.50;42.72
56632;BME280;42503;39.928;-75.152;2023-07-16T04:41:53;100989.97;;;28.51;42.40
56632;BME280;42503;39.928;-75.152;2023-07-16T04:51:57;100957.19;;;28.38;42.10
56632;BME280;42503;39.928;-75.152;2023-07-16T05:01:59;100937.28;;;28.34;42.55
56632;BME280;42503;39.928;-75.152;2023-07-16T05:12:00;100958.00;;;28.47;42.17
56632;BME280;42503;39.928;-75.152;2023-07-16T05:22:04;100924.22;;;28.38;42.24
56632;BME280;42503;39.928;-75.152;2023-07-16T05:32:06;100934.78;;;28.50;42.22
56632;BME280;42503;39.928;-75.152;2023-07-16T05:42:08;100939.59;;;28.49;42.32
56632;BME280;42503;39.928;-75.152;2023-07-16T05:52:09;100936.78;;;28.49;42.62
56632;BME280;42503;39.928;-75.152;2023-07-16T06:02:10;100916.25;;;28.49;42.25
56632;BME280;42503;39.928;-75.152;2023-07-16T06:12:12;100919.75;;;28.46;42.00
56632;BME280;42503;39.928;-75.152;2023-07-16T06:22:13;100914.44;;;28.44;42.00
56632;BME280;42503;39.928;-75.152;2023-07-16T06:32:14;100885.66;;;28.39;41.99
56632;BME280;42503;39.928;-75.152;2023-07-16T06:42:16;100873.22;;;28.40;41.61
56632;BME280;42503;39.928;-75.152;2023-07-16T06:52:23;100852.22;;;28.37;41.54
56632;BME280;42503;39.928;-75.152;2023-07-16T07:02:31;100866.28;;;28.37;41.19
56632;BME280;42503;39.928;-75.152;2023-07-16T07:12:33;100827.53;;;28.43;41.07
56632;BME280;42503;39.928;-75.152;2023-07-16T07:22:38;100792.94;;;28.42;41.45
56632;BME280;42503;39.928;-75.152;2023-07-16T07:32:39;100789.78;;;28.44;41.44
56632;BME280;42503;39.928;-75.152;2023-07-16T07:42:46;100804.03;;;28.39;41.11
56632;BME280;42503;39.928;-75.152;2023-07-16T07:52:47;100799.41;;;28.25;40.81
56632;BME280;42503;39.928;-75.152;2023-07-16T08:02:49;100810.00;;;28.37;40.97
56632;BME280;42503;39.928;-75.152;2023-07-16T08:12:53;100788.13;;;28.34;40.67
56632;BME280;42503;39.928;-75.152;2023-07-16T08:22:55;100764.34;;;28.14;40.42
56632;BME280;42503;39.928;-75.152;2023-07-16T08:32:57;100772.59;;;28.19;40.45
56632;BME280;42503;39.928;-75.152;2023-07-16T08:43:01;100731.78;;;27.96;40.24
56632;BME280;42503;39.928;-75.152;2023-07-16T08:53:05;100754.38;;;28.25;40.14
56632;BME280;42503;39.928;-75.152;2023-07-16T09:03:06;100759.84;;;28.22;39.61
56632;BME280;42503;39.928;-75.152;2023-07-16T09:13:08;100771.91;;;28.22;39.89
56632;BME280;42503;39.928;-75.152;2023-07-16T09:23:10;100773.59;;;28.23;39.71
56632;BME280;42503;39.928;-75.152;2023-07-16T09:33:15;100777.72;;;28.26;39.74
56632;BME280;42503;39.928;-75.152;2023-07-16T09:43:16;100785.16;;;28.22;39.48
56632;BME280;42503;39.928;-75.152;2023-07-16T09:53:19;100783.88;;;28.10;39.53
56632;BME280;42503;39.928;-75.152;2023-07-16T10:03:24;100807.19;;;28.20;39.50
56632;BME280;42503;39.928;-75.152;2023-07-16T10:13:26;100823.91;;;28.16;39.40
56632;BME280;42503;39.928;-75.152;2023-07-16T10:23:39;100841.94;;;28.15;39.49
56632;BME280;42503;39.928;-75.152;2023-07-16T10:33:41;100851.22;;;28.16;39.14
56632;BME280;42503;39.928;-75.152;2023-07-16T10:43:42;100842.78;;;28.07;39.19
56632;BME280;42503;39.928;-75.152;2023-07-16T10:53:44;100849.22;;;28.07;39.10
56632;BME280;42503;39.928;-75.152;2023-07-16T11:03:45;100869.25;;;28.06;39.20
56632;BME280;42503;39.928;-75.152;2023-07-16T11:13:47;100882.50;;;28.05;39.24
56632;BME280;42503;39.928;-75.152;2023-07-16T11:23:48;100853.38;;;28.01;39.09
56632;BME280;42503;39.928;-75.152;2023-07-16T11:33:49;100871.91;;;28.11;39.04
56632;BME280;42503;39.928;-75.152;2023-07-16T11:43:51;100874.53;;;27.99;38.86
56632;BME280;42503;39.928;-75.152;2023-07-16T11:53:53;100872.25;;;28.01;38.89
56632;BME280;42503;39.928;-75.152;2023-07-16T12:03:55;100851.38;;;28.02;39.10
56632;BME280;42503;39.928;-75.152;2023-07-16T12:13:56;100780.22;;;27.58;38.86
56632;BME280;42503;39.928;-75.152;2023-07-16T12:24:00;100842.94;;;28.02;39.27
56632;BME280;42503;39.928;-75.152;2023-07-16T12:34:05;100851.06;;;28.03;39.02
56632;BME280;42503;39.928;-75.152;2023-07-16T12:44:06;100838.50;;;28.01;38.89
56632;BME280;42503;39.928;-75.152;2023-07-16T12:54:07;100853.72;;;28.00;38.70
56632;BME280;42503;39.928;-75.152;2023-07-16T13:04:09;100825.59;;;27.74;38.16
56632;BME280;42503;39.928;-75.152;2023-07-16T13:14:10;100846.41;;;27.99;38.60
56632;BME280;42503;39.928;-75.152;2023-07-16T13:24:12;100819.13;;;27.99;38.69
56632;BME280;42503;39.928;-75.152;2023-07-16T13:34:13;100816.00;;;28.01;38.50
56632;BME280;42503;39.928;-75.152;2023-07-16T13:44:16;100820.63;;;27.97;38.27
56632;BME280;42503;39.928;-75.152;2023-07-16T13:54:17;100822.28;;;27.98;38.27
56632;BME280;42503;39.928;-75.152;2023-07-16T14:04:19;100818.63;;;27.89;38.52
56632;BME280;42503;39.928;-75.152;2023-07-16T14:14:22;100821.97;;;27.91;38.35
56632;BME280;42503;39.928;-75.152;2023-07-16T14:24:23;100826.09;;;27.93;38.09
56632;BME280;42503;39.928;-75.152;2023-07-16T14:34:37;100845.94;;;27.88;38.47
56632;BME280;42503;39.928;-75.152;2023-07-16T14:44:42;100858.84;;;27.89;38.23
56632;BME280;42503;39.928;-75.152;2023-07-16T14:54:43;100834.50;;;27.84;38.06
56632;BME280;42503;39.928;-75.152;2023-07-16T15:04:47;100866.63;;;27.83;37.90
56632;BME280;42503;39.928;-75.152;2023-07-16T15:14:49;100873.41;;;27.82;38.09
56632;BME280;42503;39.928;-75.152;2023-07-16T15:24:50;100868.59;;;27.83;38.66
56632;BME280;42503;39.928;-75.152;2023-07-16T15:34:51;100872.25;;;27.83;38.71
56632;BME280;42503;39.928;-75.152;2023-07-16T15:44:53;100868.94;;;27.81;38.47
56632;BME280;42503;39.928;-75.152;2023-07-16T15:54:54;100836.47;;;27.49;38.12
56632;BME280;42503;39.928;-75.152;2023-07-16T16:04:56;100863.97;;;27.78;38.11
56632;BME280;42503;39.928;-75.152;2023-07-16T16:14:58;100855.53;;;27.78;38.08
56632;BME280;42503;39.928;-75.152;2023-07-16T16:25:04;100855.00;;;27.76;38.25
56632;BME280;42503;39.928;-75.152;2023-07-16T16:35:09;100855.00;;;27.76;38.40
56632;BME280;42503;39.928;-75.152;2023-07-16T16:45:11;100849.41;;;27.76;38.21
56632;BME280;42503;39.928;-75.152;2023-07-16T16:55:16;100834.84;;;27.74;38.04
56632;BME280;42503;39.928;-75.152;2023-07-16T17:05:17;100806.03;;;27.60;37.95
56632;BME280;42503;39.928;-75.152;2023-07-16T17:15:18;100809.66;;;27.52;37.87
56632;BME280;42503;39.928;-75.152;2023-07-16T17:25:22;100797.44;;;27.65;38.24
56632;BME280;42503;39.928;-75.152;2023-07-16T17:35:27;100799.47;;;27.73;38.24
56632;BME280;42503;39.928;-75.152;2023-07-16T17:45:28;100731.63;;;27.49;38.03
56632;BME280;42503;39.928;-75.152;2023-07-16T17:55:29;100777.59;;;27.70;38.15
56632;BME280;42503;39.928;-75.152;2023-07-16T18:05:33;100797.28;;;27.70;38.12
56632;BME280;42503;39.928;-75.152;2023-07-16T18:15:35;100781.09;;;27.58;38.07
56632;BME280;42503;39.928;-75.152;2023-07-16T18:25:38;100787.19;;;27.52;38.10
56632;BME280;42503;39.928;-75.152;2023-07-16T18:35:42;100802.41;;;27.68;38.13
56632;BME280;42503;39.928;-75.152;2023-07-16T18:45:46;100824.41;;;27.66;38.12
56632;BME280;42503;39.928;-75.152;2023-07-16T18:55:50;100784.53;;;27.47;38.40
56632;BME280;42503;39.928;-75.152;2023-07-16T19:05:56;100745.38;;;27.42;38.20
56632;BME280;42503;39.928;-75.152;2023-07-16T19:15:59;100752.81;;;27.55;38.55
56632;BME280;42503;39.928;-75.152;2023-07-16T19:26:01;100710.13;;;27.53;38.52
56632;BME280;42503;39.928;-75.152;2023-07-16T19:36:02;100720.56;;;27.61;38.47
56632;BME280;42503;39.928;-75.152;2023-07-16T19:46:06;100721.06;;;27.63;38.39
56632;BME280;42503;39.928;-75.152;2023-07-16T19:56:08;100711.31;;;27.60;38.27
56632;BME280;42503;39.928;-75.152;2023-07-16T20:06:09;100690.97;;;27.55;38.54
56632;BME280;42503;39.928;-75.152;2023-07-16T20:16:11;100679.22;;;27.61;38.53
56632;BME280;42503;39.928;-75.152;2023-07-16T20:26:12;100712.13;;;27.44;38.68
56632;BME280;42503;39.928;-75.152;2023-07-16T20:36:13;100744.53;;;27.58;38.65
56632;BME280;42503;39.928;-75.152;2023-07-16T20:46:15;100751.81;;;27.59;38.69
56632;BME280;42503;39.928;-75.152;2023-07-16T20:56:17;100759.91;;;27.52;38.89
56632;BME280;42503;39.928;-75.152;2023-07-16T21:06:18;100758.59;;;27.58;38.73
56632;BME280;42503;39.928;-75.152;2023-07-16T21:16:19;100760.25;;;27.51;38.28
56632;BME280;42503;39.928;-75.152;2023-07-16T21:26:21;100767.50;;;27.52;38.32
56632;BME280;42503;39.928;-75.152;2023-07-16T21:36:22;100766.34;;;27.53;38.64
56632;BME280;42503;39.928;-75.152;2023-07-16T21:46:23;100774.13;;;27.56;38.63
56632;BME280;42503;39.928;-75.152;2023-07-16T21:56:25;100736.59;;;27.52;38.60
56632;BME280;42503;39.928;-75.152;2023-07-16T22:06:26;100723.53;;;27.47;38.65
56632;BME280;42503;39.928;-75.152;2023-07-16T22:16:28;100708.31;;;27.48;38.95
56632;BME280;42503;39.928;-75.152;2023-07-16T22:26:31;100656.56;;;27.06;38.97
56632;BME280;42503;39.928;-75.152;2023-07-16T22:36:33;100735.78;;;27.43;38.95
56632;BME280;42503;39.928;-75.152;2023-07-16T22:46:34;100766.22;;;27.49;38.94
56632;BME280;42503;39.928;-75.152;2023-07-16T22:56:35;100756.44;;;27.47;38.95
56632;BME280;42503;39.928;-75.152;2023-07-16T23:06:37;100768.50;;;27.47;38.83
56632;BME280;42503;39.928;-75.152;2023-07-16T23:16:38;100787.69;;;27.45;38.62
56632;BME280;42503;39.928;-75.152;2023-07-16T23:26:40;100800.25;;;27.48;38.91
56632;BME280;42503;39.928;-75.152;2023-07-16T23:36:41;100790.31;;;27.42;38.98
56632;BME280;42503;39.928;-75.152;2023-07-16T23:46:42;100801.75;;;27.45;38.95
56632;BME280;42503;39.928;-75.152;2023-07-16T23:56:44;100806.53;;;27.45;38.91
